createdAt,value
2023-04-11T00:00:18.048Z,93.32
2023-04-11T00:01:18.050Z,93.63
2023-04-11T00:02:19.005Z,93.84
2023-04-11T00:03:18.183Z,93.77
2023-04-11T00:04:18.112Z,93.57
2023-04-11T00:05:17.970Z,93.26
2023-04-11T00:06:17.950Z,93.06
2023-04-11T00:07:17.941Z,92.85
2023-04-11T00:08:17.941Z,92.85
2023-04-11T00:09:17.916Z,92.96
2023-04-11T00:10:17.969Z,92.75
2023-04-11T00:11:17.906Z,92.65
2023-04-11T00:12:17.891Z,92.65
2023-04-11T00:13:17.892Z,92.44
2023-04-11T00:14:17.873Z,92.24
2023-04-11T00:15:17.833Z,92.03
2023-04-11T00:16:17.929Z,92.03
2023-04-11T00:17:17.806Z,92.14
2023-04-11T00:18:17.851Z,92.14
2023-04-11T00:19:17.798Z,92.14
2023-04-11T00:20:17.775Z,92.03
2023-04-11T00:21:17.812Z,91.83
2023-04-11T00:22:17.783Z,92.03
2023-04-11T00:23:17.739Z,92.03
2023-04-11T00:24:17.771Z,92.30
2023-04-11T00:25:20.509Z,92.40
2023-04-11T00:26:17.677Z,92.40
2023-04-11T00:27:19.112Z,92.30
2023-04-11T00:28:17.657Z,92.30
2023-04-11T00:29:17.655Z,92.10
2023-04-11T00:30:17.645Z,91.99
2023-04-11T00:31:17.664Z,91.78
2023-04-11T00:32:17.604Z,91.63
2023-04-11T00:33:17.599Z,91.69
2023-04-11T00:34:17.842Z,91.89
2023-04-11T00:35:17.611Z,91.89
2023-04-11T00:36:17.647Z,91.58
2023-04-11T00:37:17.516Z,91.38
2023-04-11T00:38:17.550Z,91.27
2023-04-11T00:39:17.557Z,90.56
2023-04-11T00:40:17.523Z,90.86
2023-04-11T00:41:17.500Z,90.86
2023-04-11T00:42:17.475Z,90.77
2023-04-11T00:43:17.448Z,91.17
2023-04-11T00:44:17.455Z,91.27
2023-04-11T00:45:17.426Z,91.17
2023-04-11T00:46:17.492Z,91.07
2023-04-11T00:47:17.383Z,90.77
2023-04-11T00:48:17.410Z,90.45
2023-04-11T00:49:17.413Z,90.56
2023-04-11T00:50:17.369Z,90.86
2023-04-11T00:51:17.360Z,90.86
2023-04-11T00:52:17.338Z,90.36
2023-04-11T00:53:17.305Z,90.15
2023-04-11T00:54:17.326Z,90.45
2023-04-11T00:55:17.286Z,90.66
2023-04-11T00:56:17.322Z,90.66
2023-04-11T00:57:17.300Z,90.77
2023-04-11T00:59:06.216Z,90.56
2023-04-11T01:00:06.188Z,90.56
2023-04-11T01:01:06.199Z,90.45
2023-04-11T01:02:07.921Z,90.56
2023-04-11T01:03:06.251Z,90.30
2023-04-11T01:04:06.263Z,90.60
2023-04-11T01:05:06.129Z,90.56
2023-04-11T01:06:06.112Z,90.50
2023-04-11T01:07:06.456Z,89.98
2023-04-11T01:08:06.105Z,90.09
2023-04-11T01:09:06.153Z,90.19
2023-04-11T01:10:06.084Z,89.89
2023-04-11T01:11:06.026Z,89.98
2023-04-11T01:12:06.061Z,89.78
2023-04-11T01:13:06.024Z,89.78
2023-04-11T01:14:06.019Z,89.98
2023-04-11T01:15:06.017Z,90.09
2023-04-11T01:16:06.011Z,89.98
2023-04-11T01:17:06.056Z,90.09
2023-04-11T01:18:06.041Z,90.19
2023-04-11T01:19:05.936Z,90.09
2023-04-11T01:20:05.987Z,89.89
2023-04-11T01:21:05.898Z,89.58
2023-04-11T01:22:05.903Z,89.47
2023-04-11T01:23:05.893Z,89.06
2023-04-11T01:24:05.893Z,89.06
2023-04-11T01:25:05.908Z,88.86
2023-04-11T01:26:05.872Z,88.76
2023-04-11T01:27:05.859Z,88.65
2023-04-11T01:28:05.863Z,88.65
2023-04-11T01:29:05.809Z,88.86
2023-04-11T01:30:05.852Z,88.96
2023-04-11T01:31:05.839Z,88.56
2023-04-11T01:32:05.797Z,88.56
2023-04-11T01:33:05.870Z,88.90
2023-04-11T01:34:05.781Z,88.59
2023-04-11T01:35:05.758Z,88.70
2023-04-11T01:36:05.797Z,88.80
2023-04-11T01:37:05.869Z,89.00
2023-04-11T01:38:05.698Z,89.00
2023-04-11T01:39:05.689Z,89.11
2023-04-11T01:40:05.752Z,89.00
2023-04-11T01:41:05.680Z,88.80
2023-04-11T01:42:05.657Z,88.80
2023-04-11T01:43:05.626Z,89.00
2023-04-11T01:44:05.611Z,89.11
2023-04-11T01:45:05.641Z,89.11
2023-04-11T01:46:05.584Z,89.11
2023-04-11T01:47:05.578Z,89.00
2023-04-11T01:48:05.711Z,89.31
2023-04-11T01:49:05.669Z,89.51
2023-04-11T01:50:05.569Z,89.11
2023-04-11T01:51:05.562Z,89.21
2023-04-11T01:52:05.502Z,89.51
2023-04-11T01:53:05.526Z,89.51
2023-04-11T01:54:05.485Z,89.62
2023-04-11T01:55:05.472Z,89.51
2023-04-11T01:56:05.444Z,89.72
2023-04-11T01:57:05.476Z,89.42
2023-04-11T01:58:05.425Z,89.42
2023-04-11T01:59:05.438Z,89.62
2023-04-11T02:00:05.467Z,89.51
2023-04-11T02:01:05.429Z,89.62
2023-04-11T02:02:05.510Z,89.31
2023-04-11T02:03:05.593Z,89.21
2023-04-11T02:04:05.406Z,89.31
2023-04-11T02:05:05.355Z,89.31
2023-04-11T02:06:05.351Z,89.11
2023-04-11T02:07:05.308Z,88.90
2023-04-11T02:08:05.333Z,88.49
2023-04-11T02:09:05.309Z,88.70
2023-04-11T02:10:05.319Z,88.70
2023-04-11T02:11:05.283Z,88.39
2023-04-11T02:12:05.237Z,88.39
2023-04-11T02:13:05.242Z,87.98
2023-04-11T02:14:05.209Z,87.98
2023-04-11T02:15:05.214Z,87.67
2023-04-11T02:16:05.229Z,87.98
2023-04-11T02:17:05.201Z,88.08
2023-04-11T02:18:05.247Z,88.18
2023-04-11T02:19:05.147Z,87.88
2023-04-11T02:20:05.188Z,88.08
2023-04-11T02:21:05.122Z,87.77
2023-04-11T02:22:05.103Z,87.57
2023-04-11T02:23:05.131Z,87.67
2023-04-11T02:24:05.100Z,87.88
2023-04-11T02:25:05.083Z,87.88
2023-04-11T02:26:05.095Z,87.77
2023-04-11T02:27:05.065Z,87.47
2023-04-11T02:28:07.421Z,87.47
2023-04-11T02:29:05.059Z,88.08
2023-04-11T02:30:05.020Z,88.49
2023-04-11T02:31:05.072Z,88.08
2023-04-11T02:32:05.204Z,88.02
2023-04-11T02:33:05.108Z,87.98
2023-04-11T02:34:04.965Z,88.33
2023-04-11T02:35:04.954Z,88.02
2023-04-11T02:36:04.978Z,87.82
2023-04-11T02:37:04.944Z,88.23
2023-04-11T02:38:04.903Z,88.12
2023-04-11T02:39:04.919Z,88.02
2023-04-11T02:40:04.972Z,88.23
2023-04-11T02:41:04.872Z,88.33
2023-04-11T02:42:04.901Z,88.33
2023-04-11T02:43:04.895Z,87.92
2023-04-11T02:44:04.840Z,87.92
2023-04-11T02:45:04.938Z,88.53
2023-04-11T02:46:12.563Z,88.84
2023-04-11T02:47:05.820Z,88.64
2023-04-11T02:48:04.853Z,88.64
2023-04-11T02:49:04.797Z,88.53
2023-04-11T02:50:04.802Z,88.94
2023-04-11T02:51:04.777Z,88.94
2023-04-11T02:52:04.712Z,88.84
2023-04-11T02:53:04.716Z,88.94
2023-04-11T02:54:04.690Z,88.43
2023-04-11T02:55:04.695Z,88.43
2023-04-11T02:56:04.678Z,88.53
2023-04-11T02:57:04.679Z,88.53
2023-04-11T02:58:04.649Z,88.33
2023-04-11T02:59:04.651Z,88.23
2023-04-11T03:00:04.626Z,88.43
2023-04-11T03:01:04.649Z,88.64
2023-04-11T03:02:04.656Z,88.43
2023-04-11T03:03:04.733Z,88.43
2023-04-11T03:04:04.651Z,88.53
2023-04-11T03:05:04.575Z,88.88
2023-04-11T03:06:04.532Z,88.84
2023-04-11T03:07:04.566Z,88.84
2023-04-11T03:08:04.548Z,88.53
2023-04-11T03:09:04.525Z,88.37
2023-04-11T03:10:04.515Z,88.47
2023-04-11T03:11:04.544Z,88.47
2023-04-11T03:12:04.445Z,88.68
2023-04-11T03:13:04.465Z,88.98
2023-04-11T03:14:04.422Z,89.09
2023-04-11T03:15:04.468Z,88.98
2023-04-11T03:16:04.467Z,88.57
2023-04-11T03:17:04.435Z,88.68
2023-04-11T03:18:04.464Z,88.98
2023-04-11T03:19:04.392Z,88.88
2023-04-11T03:20:04.427Z,88.57
2023-04-11T03:21:04.379Z,88.47
2023-04-11T03:22:04.359Z,88.47
2023-04-11T03:23:04.342Z,88.17
2023-04-11T03:24:04.319Z,88.27
2023-04-11T03:25:04.354Z,88.27
2023-04-11T03:26:04.276Z,88.47
2023-04-11T03:27:04.270Z,88.41
2023-04-11T03:28:04.280Z,88.41
2023-04-11T03:29:04.251Z,88.21
2023-04-11T03:30:04.227Z,88.21
2023-04-11T03:31:04.337Z,88.51
2023-04-11T03:32:04.199Z,88.72
2023-04-11T03:33:04.232Z,88.72
2023-04-11T03:34:04.165Z,88.62
2023-04-11T03:35:04.201Z,88.92
2023-04-11T03:36:04.200Z,88.62
2023-04-11T03:37:04.177Z,88.72
2023-04-11T03:38:04.144Z,88.82
2023-04-11T03:39:04.142Z,88.92
2023-04-11T03:40:04.168Z,88.62
2023-04-11T03:41:04.151Z,88.82
2023-04-11T03:42:04.103Z,88.96
2023-04-11T03:43:04.968Z,88.86
2023-04-11T03:44:04.038Z,89.07
2023-04-11T03:45:04.072Z,88.86
2023-04-11T03:46:04.060Z,88.96
2023-04-11T03:47:04.078Z,88.86
2023-04-11T03:48:04.019Z,89.07
2023-04-11T03:49:04.016Z,89.07
2023-04-11T03:50:04.003Z,88.86
2023-04-11T03:51:03.967Z,88.56
2023-04-11T03:52:03.981Z,88.66
2023-04-11T03:53:03.943Z,88.56
2023-04-11T03:54:03.934Z,88.56
2023-04-11T03:55:03.919Z,88.45
2023-04-11T03:56:03.880Z,88.45
2023-04-11T03:57:03.946Z,88.66
2023-04-11T03:58:03.899Z,88.56
2023-04-11T03:59:03.853Z,88.45
2023-04-11T04:00:03.857Z,88.45
2023-04-11T04:01:03.850Z,88.45
2023-04-11T04:02:03.999Z,88.35
2023-04-11T04:03:04.069Z,88.45
2023-04-11T04:04:04.372Z,88.35
2023-04-11T04:05:03.873Z,88.14
2023-04-11T04:06:03.770Z,88.35
2023-04-11T04:07:03.784Z,88.14
2023-04-11T04:08:03.768Z,87.53
2023-04-11T04:09:03.785Z,87.84
2023-04-11T04:10:03.723Z,88.14
2023-04-11T04:11:03.771Z,88.04
2023-04-11T04:12:03.695Z,87.94
2023-04-11T04:13:03.689Z,87.94
2023-04-11T04:14:03.668Z,88.14
2023-04-11T04:15:03.765Z,88.56
2023-04-11T04:16:04.006Z,88.86
2023-04-11T04:17:03.673Z,88.35
2023-04-11T04:18:03.716Z,88.14
2023-04-11T04:19:03.617Z,88.04
2023-04-11T04:20:03.635Z,88.14
2023-04-11T04:21:03.608Z,88.14
2023-04-11T04:22:03.564Z,88.24
2023-04-11T04:23:03.541Z,87.94
2023-04-11T04:24:03.773Z,88.04
2023-04-11T04:25:03.551Z,87.94
2023-04-11T04:26:03.492Z,87.84
2023-04-11T04:27:03.522Z,87.84
2023-04-11T04:28:03.477Z,87.94
2023-04-11T04:29:03.459Z,87.84
2023-04-11T04:30:04.657Z,87.94
2023-04-11T04:31:03.476Z,88.14
2023-04-11T04:32:03.496Z,87.88
2023-04-11T04:33:03.450Z,87.98
2023-04-11T04:34:03.399Z,87.88
2023-04-11T04:35:03.403Z,87.94
2023-04-11T04:36:03.421Z,88.14
2023-04-11T04:37:03.393Z,88.35
2023-04-11T04:38:03.348Z,88.56
2023-04-11T04:39:03.321Z,88.56
2023-04-11T04:40:03.308Z,88.24
2023-04-11T04:41:03.356Z,88.24
2023-04-11T04:42:03.293Z,88.56
2023-04-11T04:43:03.310Z,88.35
2023-04-11T04:44:03.275Z,88.35
2023-04-11T04:45:03.251Z,88.24
2023-04-11T04:46:03.259Z,88.56
2023-04-11T04:47:03.252Z,88.86
2023-04-11T04:48:03.296Z,89.07
2023-04-11T04:49:03.226Z,89.07
2023-04-11T04:50:03.196Z,89.17
2023-04-11T04:51:03.243Z,88.86
2023-04-11T04:52:03.221Z,88.66
2023-04-11T04:53:03.140Z,88.66
2023-04-11T04:54:03.157Z,88.76
2023-04-11T04:55:03.142Z,88.56
2023-04-11T04:56:03.132Z,88.66
2023-04-11T04:57:03.147Z,88.76
2023-04-11T04:58:03.096Z,88.96
2023-04-11T04:59:03.074Z,88.76
2023-04-11T05:00:03.077Z,88.66
2023-04-11T05:01:03.121Z,88.76
2023-04-11T05:02:03.106Z,88.66
2023-04-11T05:03:03.169Z,88.86
2023-04-11T05:04:03.308Z,88.45
2023-04-11T05:05:02.986Z,88.56
2023-04-11T05:06:03.008Z,88.76
2023-04-11T05:07:02.989Z,89.07
2023-04-11T05:08:02.951Z,89.17
2023-04-11T05:09:02.952Z,88.76
2023-04-11T05:10:02.933Z,88.96
2023-04-11T05:11:02.958Z,88.59
2023-04-11T05:12:02.908Z,88.66
2023-04-11T05:13:02.873Z,88.66
2023-04-11T05:14:02.886Z,88.66
2023-04-11T05:15:02.915Z,88.14
2023-04-11T05:16:02.869Z,88.04
2023-04-11T05:17:02.857Z,88.24
2023-04-11T05:18:02.920Z,87.94
2023-04-11T05:19:02.801Z,87.84
2023-04-11T05:20:02.818Z,87.63
2023-04-11T05:21:02.809Z,87.94
2023-04-11T05:22:02.802Z,87.84
2023-04-11T05:23:02.757Z,87.63
2023-04-11T05:24:02.749Z,87.84
2023-04-11T05:25:02.722Z,87.73
2023-04-11T05:26:02.731Z,87.98
2023-04-11T05:27:02.709Z,87.77
2023-04-11T05:28:02.666Z,87.88
2023-04-11T05:29:02.672Z,87.46
2023-04-11T05:30:02.675Z,87.57
2023-04-11T05:31:02.731Z,87.67
2023-04-11T05:32:02.610Z,87.88
2023-04-11T05:33:02.694Z,87.98
2023-04-11T05:34:02.608Z,88.08
2023-04-11T05:35:02.600Z,87.88
2023-04-11T05:36:02.612Z,87.98
2023-04-11T05:37:02.565Z,88.29
2023-04-11T05:38:02.552Z,88.29
2023-04-11T05:39:02.538Z,88.08
2023-04-11T05:40:02.552Z,87.88
2023-04-11T05:41:02.556Z,87.88
2023-04-11T05:42:02.493Z,87.98
2023-04-11T05:43:02.486Z,87.98
2023-04-11T05:44:02.488Z,87.77
2023-04-11T05:45:02.536Z,87.88
2023-04-11T05:46:02.495Z,87.67
2023-04-11T05:47:02.461Z,87.67
2023-04-11T05:48:02.601Z,87.94
2023-04-11T05:49:02.404Z,87.94
2023-04-11T05:50:02.416Z,87.94
2023-04-11T05:51:02.428Z,87.94
2023-04-11T05:52:02.361Z,87.32
2023-04-11T05:53:02.366Z,87.32
2023-04-11T05:54:02.361Z,87.32
2023-04-11T05:55:02.332Z,87.22
2023-04-11T05:56:02.365Z,87.12
2023-04-11T05:57:02.357Z,86.91
2023-04-11T05:58:02.331Z,86.71
2023-04-11T05:59:02.254Z,87.02
2023-04-11T06:00:02.373Z,86.91
2023-04-11T06:01:02.258Z,87.12
2023-04-11T06:02:02.296Z,87.02
2023-04-11T06:03:02.399Z,86.71
2023-04-11T06:04:02.565Z,87.02
2023-04-11T06:05:02.316Z,86.50
2023-04-11T06:06:02.205Z,86.60
2023-04-11T06:07:02.257Z,86.71
2023-04-11T06:08:02.177Z,86.77
2023-04-11T06:09:02.155Z,86.87
2023-04-11T06:10:02.158Z,86.66
2023-04-11T06:11:02.145Z,86.46
2023-04-11T06:12:02.146Z,86.36
2023-04-11T06:13:02.078Z,85.99
2023-04-11T06:14:02.120Z,85.99
2023-04-11T06:15:02.047Z,86.36
2023-04-11T06:16:02.171Z,86.25
2023-04-11T06:17:02.024Z,86.36
2023-04-11T06:18:02.119Z,86.15
2023-04-11T06:19:02.022Z,85.85
2023-04-11T06:20:03.634Z,86.05
2023-04-11T06:21:02.014Z,85.74
2023-04-11T06:22:02.032Z,85.74
2023-04-11T06:23:01.956Z,85.54
2023-04-11T06:24:01.980Z,85.78
2023-04-11T06:25:01.956Z,85.68
2023-04-11T06:26:01.966Z,85.99
2023-04-11T06:27:01.908Z,85.89
2023-04-11T06:28:01.915Z,85.89
2023-04-11T06:29:01.940Z,85.68
2023-04-11T06:30:01.965Z,85.27
2023-04-11T06:31:02.011Z,85.27
2023-04-11T06:32:01.937Z,85.47
2023-04-11T06:33:01.947Z,85.58
2023-04-11T06:34:01.840Z,85.99
2023-04-11T06:35:01.867Z,85.68
2023-04-11T06:36:03.135Z,85.47
2023-04-11T06:37:01.804Z,85.74
2023-04-11T06:38:01.800Z,86.05
2023-04-11T06:39:01.768Z,85.85
2023-04-11T06:40:01.812Z,85.64
2023-04-11T06:41:01.709Z,85.74
2023-04-11T06:42:01.711Z,84.45
2023-04-11T06:43:01.733Z,84.41
2023-04-11T06:44:01.780Z,84.72
2023-04-11T06:45:01.765Z,83.28
2023-04-11T06:46:01.725Z,83.28
2023-04-11T06:47:01.768Z,83.49
2023-04-11T06:48:01.681Z,83.69
2023-04-11T06:49:01.631Z,84.31
2023-04-11T06:50:01.644Z,84.31
2023-04-11T06:51:01.618Z,84.72
2023-04-11T06:52:01.613Z,84.92
2023-04-11T06:53:01.583Z,84.61
2023-04-11T06:54:01.581Z,84.20
2023-04-11T06:55:01.562Z,84.61
2023-04-11T06:56:01.578Z,84.10
2023-04-11T06:57:01.587Z,83.49
2023-04-11T06:58:01.505Z,83.69
2023-04-11T06:59:09.061Z,83.65
2023-04-11T07:00:01.668Z,83.76
2023-04-11T07:01:01.592Z,84.06
2023-04-11T07:02:01.574Z,83.96
2023-04-11T07:03:01.686Z,83.82
2023-04-11T07:04:01.638Z,83.20
2023-04-11T07:05:01.435Z,83.61
2023-04-11T07:06:01.423Z,83.31
2023-04-11T07:07:01.389Z,82.39
2023-04-11T07:08:01.506Z,81.98
2023-04-11T07:09:01.365Z,81.98
2023-04-11T07:10:01.364Z,82.49
2023-04-11T07:11:01.323Z,82.69
2023-04-11T07:12:01.422Z,82.45
2023-04-11T07:13:01.319Z,81.63
2023-04-11T07:14:01.314Z,81.84
2023-04-11T07:15:01.306Z,80.54
2023-04-11T07:16:01.332Z,79.93
2023-04-11T07:17:01.317Z,80.44
2023-04-11T07:18:01.294Z,80.85
2023-04-11T07:19:01.247Z,80.03
2023-04-11T07:20:01.262Z,80.51
2023-04-11T07:21:01.188Z,79.89
2023-04-11T07:22:01.228Z,80.30
2023-04-11T07:23:01.191Z,80.19
2023-04-11T07:24:01.183Z,80.40
2023-04-11T07:25:01.135Z,81.01
2023-04-11T07:26:01.240Z,81.43
2023-04-11T07:27:01.146Z,80.91
2023-04-11T07:28:01.129Z,81.12
2023-04-11T07:29:01.091Z,82.04
2023-04-11T07:30:01.130Z,81.01
2023-04-11T07:31:01.077Z,80.30
2023-04-11T07:32:01.174Z,80.71
2023-04-11T07:33:01.153Z,80.60
2023-04-11T07:34:01.044Z,80.60
2023-04-11T07:35:01.006Z,80.60
2023-04-11T07:36:01.060Z,81.22
2023-04-11T07:37:01.227Z,81.32
2023-04-11T07:38:01.008Z,81.22
2023-04-11T07:39:01.035Z,80.51
2023-04-11T07:40:01.075Z,80.51
2023-04-11T07:41:00.942Z,79.58
2023-04-11T07:42:00.995Z,80.40
2023-04-11T07:43:00.946Z,80.40
2023-04-11T07:44:00.980Z,80.88
2023-04-11T07:45:00.867Z,80.46
2023-04-11T07:46:01.059Z,80.05
2023-04-11T07:47:00.966Z,78.86
2023-04-11T07:48:00.941Z,79.17
2023-04-11T07:49:00.903Z,79.24
2023-04-11T07:50:00.907Z,79.54
2023-04-11T07:51:00.786Z,79.44
2023-04-11T07:52:00.829Z,79.34
2023-04-11T07:53:00.950Z,80.05
2023-04-11T07:54:00.779Z,80.05
2023-04-11T07:55:00.785Z,80.16
2023-04-11T07:56:00.773Z,79.50
2023-04-11T07:57:00.740Z,79.30
2023-04-11T07:58:00.763Z,77.46
2023-04-11T07:59:00.716Z,76.95
2023-04-11T08:00:01.430Z,77.67
2023-04-11T08:01:00.679Z,76.78
2023-04-11T08:02:00.780Z,76.78
2023-04-11T08:03:00.901Z,77.29
2023-04-11T08:04:01.157Z,76.88
2023-04-11T08:05:00.763Z,77.60
2023-04-11T08:06:00.603Z,78.42
2023-04-11T08:07:00.633Z,77.91
2023-04-11T08:08:00.621Z,77.33
2023-04-11T08:09:00.560Z,78.21
2023-04-11T08:10:00.594Z,78.01
2023-04-11T08:11:00.553Z,77.91
2023-04-11T08:12:00.557Z,77.70
2023-04-11T08:13:00.503Z,78.21
2023-04-11T08:14:00.509Z,78.72
2023-04-11T08:15:00.595Z,77.50
2023-04-11T08:16:00.544Z,76.27
2023-04-11T08:17:00.542Z,76.37
2023-04-11T08:18:00.538Z,75.35
2023-04-11T08:19:00.462Z,76.47
2023-04-11T08:20:02.240Z,76.95
2023-04-11T08:21:00.432Z,77.05
2023-04-11T08:22:00.466Z,76.95
2023-04-11T08:23:00.375Z,77.73
2023-04-11T08:24:00.437Z,76.91
2023-04-11T08:25:00.400Z,76.81
2023-04-11T08:26:00.389Z,77.80
2023-04-11T08:27:00.386Z,75.85
2023-04-11T08:28:00.478Z,76.23
2023-04-11T08:29:00.324Z,74.90
2023-04-11T08:30:00.347Z,74.90
2023-04-11T08:31:00.371Z,73.98
2023-04-11T08:32:00.332Z,75.10
2023-04-11T08:33:00.398Z,74.87
2023-04-11T08:34:01.381Z,74.15
2023-04-11T08:35:00.219Z,74.15
2023-04-11T08:36:00.298Z,75.68
2023-04-11T08:37:00.271Z,73.23
2023-04-11T08:38:00.205Z,73.60
2023-04-11T08:39:00.192Z,72.62
2023-04-11T08:40:00.211Z,72.41
2023-04-11T08:41:00.314Z,73.13
2023-04-11T08:42:00.185Z,73.33
2023-04-11T08:43:00.142Z,74.35
2023-04-11T08:44:00.140Z,74.25
2023-04-11T08:45:00.174Z,74.66
2023-04-11T08:46:00.178Z,72.21
2023-04-11T08:47:00.082Z,71.39
2023-04-11T08:48:00.194Z,71.50
2023-04-11T08:49:00.036Z,71.19
2023-04-11T08:50:00.100Z,72.21
2023-04-11T08:51:00.058Z,71.09
2023-04-11T08:52:00.055Z,70.47
2023-04-11T08:53:00.017Z,70.06
2023-04-11T08:54:00.023Z,69.69
2023-04-11T08:55:00.118Z,70.30
2023-04-11T08:56:00.037Z,70.17
2023-04-11T08:56:59.966Z,69.86
2023-04-11T08:58:00.005Z,70.54
2023-04-11T08:58:59.939Z,69.35
2023-04-11T08:59:59.930Z,69.15
2023-04-11T09:00:59.964Z,69.79
2023-04-11T09:02:00.030Z,70.51
2023-04-11T09:02:59.981Z,71.22
2023-04-11T09:04:00.104Z,71.53
2023-04-11T09:04:59.883Z,72.45
2023-04-11T09:05:59.859Z,71.83
2023-04-11T09:07:01.164Z,71.39
2023-04-11T09:07:59.884Z,71.09
2023-04-11T09:08:59.804Z,71.09
2023-04-11T09:09:59.811Z,71.29
2023-04-11T09:10:59.747Z,71.29
2023-04-11T09:11:59.855Z,71.09
2023-04-11T09:12:59.753Z,71.09
2023-04-11T09:13:59.718Z,70.47
2023-04-11T09:14:59.708Z,71.80
2023-04-11T09:15:59.769Z,70.88
2023-04-11T09:16:59.768Z,70.40
2023-04-11T09:18:01.041Z,70.30
2023-04-11T09:18:59.718Z,71.01
2023-04-11T09:19:59.666Z,70.98
2023-04-11T09:20:59.688Z,71.19
2023-04-11T09:21:59.742Z,70.68
2023-04-11T09:22:59.600Z,71.59
2023-04-11T09:23:59.631Z,71.56
2023-04-11T09:24:59.603Z,70.03
2023-04-11T09:25:59.573Z,70.47
2023-04-11T09:26:59.606Z,71.09
2023-04-11T09:27:59.586Z,70.78
2023-04-11T09:28:59.760Z,70.34
2023-04-11T09:29:59.538Z,71.67
2023-04-11T09:30:59.545Z,71.56
2023-04-11T09:31:59.546Z,70.40
2023-04-11T09:32:59.564Z,68.16
2023-04-11T09:33:59.689Z,68.88
2023-04-11T09:34:59.471Z,68.67
2023-04-11T09:35:59.473Z,68.26
2023-04-11T09:36:59.461Z,69.15
2023-04-11T09:37:59.404Z,68.13
2023-04-11T09:38:59.428Z,67.93
2023-04-11T09:39:59.420Z,67.49
2023-04-11T09:40:59.384Z,67.99
2023-04-11T09:41:59.442Z,68.61
2023-04-11T09:42:59.387Z,66.88
2023-04-11T09:43:59.497Z,65.65
2023-04-11T09:44:59.360Z,67.18
2023-04-11T09:45:59.311Z,66.70
2023-04-11T09:46:59.579Z,68.23
2023-04-11T09:47:59.344Z,68.47
2023-04-11T09:48:59.251Z,67.96
2023-04-11T09:49:59.275Z,67.65
2023-04-11T09:50:59.265Z,68.88
2023-04-11T09:51:59.304Z,67.82
2023-04-11T09:52:59.562Z,68.23
2023-04-11T09:53:59.552Z,66.70
2023-04-11T09:54:59.225Z,67.52
2023-04-11T09:55:59.204Z,67.62
2023-04-11T09:56:59.260Z,66.97
2023-04-11T09:57:59.163Z,67.59
2023-04-11T09:58:59.111Z,66.13
2023-04-11T09:59:59.122Z,65.52
2023-04-11T10:00:59.095Z,63.99
2023-04-11T10:01:59.205Z,64.70
2023-04-11T10:02:59.360Z,63.99
2023-04-11T10:03:59.292Z,64.09
2023-04-11T10:04:59.114Z,63.38
2023-04-11T10:05:59.052Z,64.50
2023-04-11T10:06:59.054Z,63.89
2023-04-11T10:07:59.077Z,64.60
2023-04-11T10:08:59.010Z,63.99
2023-04-11T10:09:58.970Z,62.36
2023-04-11T10:10:59.000Z,62.46
2023-04-11T10:11:58.993Z,63.38
2023-04-11T10:12:58.976Z,64.32
2023-04-11T10:13:59.022Z,65.34
2023-04-11T10:14:58.929Z,63.95
2023-04-11T10:15:58.965Z,63.71
2023-04-11T10:16:58.896Z,63.20
2023-04-11T10:17:59.052Z,62.80
2023-04-11T10:18:58.883Z,62.42
2023-04-11T10:19:58.917Z,62.49
2023-04-11T10:20:58.866Z,61.88
2023-04-11T10:21:58.882Z,62.26
2023-04-11T10:22:58.849Z,61.34
2023-04-11T10:23:58.804Z,60.80
2023-04-11T10:24:58.806Z,59.78
2023-04-11T10:25:58.801Z,62.23
2023-04-11T10:26:58.833Z,61.18
2023-04-11T10:27:58.736Z,60.88
2023-04-11T10:28:58.728Z,61.49
2023-04-11T10:29:58.785Z,61.72
2023-04-11T10:30:58.749Z,60.30
2023-04-11T10:31:58.967Z,60.70
2023-04-11T10:32:58.751Z,61.61
2023-04-11T10:33:58.692Z,61.79
2023-04-11T10:34:58.666Z,59.86
2023-04-11T10:35:58.728Z,60.68
2023-04-11T10:36:58.767Z,59.66
2023-04-11T10:37:58.690Z,59.66
2023-04-11T10:38:58.663Z,61.18
2023-04-11T10:39:58.676Z,59.75
2023-04-11T10:40:58.612Z,60.57
2023-04-11T10:41:58.602Z,59.17
2023-04-11T10:42:58.558Z,59.17
2023-04-11T10:43:58.741Z,60.53
2023-04-11T10:44:58.561Z,61.65
2023-04-11T10:45:58.605Z,61.54
2023-04-11T10:46:58.593Z,61.75
2023-04-11T10:47:58.553Z,61.34
2023-04-11T10:48:58.503Z,58.28
2023-04-11T10:49:58.462Z,59.81
2023-04-11T10:50:58.468Z,60.60
2023-04-11T10:51:58.437Z,61.31
2023-04-11T10:52:58.459Z,61.29
2023-04-11T10:53:58.492Z,62.61
2023-04-11T10:54:58.425Z,62.07
2023-04-11T10:55:58.361Z,62.17
2023-04-11T10:56:58.412Z,61.56
2023-04-11T10:57:58.343Z,62.07
2023-04-11T10:58:58.410Z,57.72
2023-04-11T10:59:58.376Z,58.56
2023-04-11T11:00:58.377Z,59.17
2023-04-11T11:01:58.453Z,58.76
2023-04-11T11:02:58.526Z,58.56
2023-04-11T11:03:58.627Z,59.07
2023-04-11T11:04:58.302Z,59.17
2023-04-11T11:05:58.294Z,58.76
2023-04-11T11:06:59.215Z,58.33
2023-04-11T11:07:58.285Z,59.66
2023-04-11T11:08:58.213Z,58.20
2023-04-11T11:09:58.203Z,56.40
2023-04-11T11:10:58.287Z,57.11
2023-04-11T11:11:58.181Z,58.20
2023-04-11T11:12:58.256Z,58.92
2023-04-11T11:13:58.508Z,59.50
2023-04-11T11:14:58.182Z,56.65
2023-04-11T11:15:58.204Z,55.94
2023-04-11T11:16:58.234Z,56.14
2023-04-11T11:17:58.159Z,55.02
2023-04-11T11:18:58.115Z,55.55
2023-04-11T11:19:58.117Z,56.16
2023-04-11T11:20:58.108Z,56.98
2023-04-11T11:21:58.111Z,57.18
2023-04-11T11:22:58.132Z,57.90
2023-04-11T11:23:58.515Z,56.37
2023-04-11T11:24:58.054Z,55.96
2023-04-11T11:25:57.975Z,57.39
2023-04-11T11:26:58.030Z,56.88
2023-04-11T11:27:58.091Z,57.08
2023-04-11T11:28:58.078Z,57.79
2023-04-11T11:29:57.991Z,56.68
2023-04-11T11:30:57.943Z,57.21
2023-04-11T11:31:57.963Z,58.53
2023-04-11T11:32:57.970Z,56.57
2023-04-11T11:34:04.646Z,56.37
2023-04-11T11:34:58.923Z,55.66
2023-04-11T11:35:57.881Z,56.57
2023-04-11T11:36:57.940Z,56.04
2023-04-11T11:37:57.817Z,55.12
2023-04-11T11:38:58.117Z,55.33
2023-04-11T11:39:57.815Z,55.02
2023-04-11T11:40:57.823Z,54.61
2023-04-11T11:41:57.799Z,56.95
2023-04-11T11:42:57.833Z,55.83
2023-04-11T11:43:58.061Z,56.37
2023-04-11T11:44:57.807Z,55.66
2023-04-11T11:45:57.738Z,56.20
2023-04-11T11:46:57.774Z,56.50
2023-04-11T11:47:57.743Z,57.42
2023-04-11T11:48:58.007Z,57.52
2023-04-11T11:49:57.676Z,57.62
2023-04-11T11:50:57.672Z,57.79
2023-04-11T11:51:57.712Z,57.29
2023-04-11T11:52:57.671Z,56.68
2023-04-11T11:53:57.651Z,56.57
2023-04-11T11:54:57.654Z,56.60
2023-04-11T11:55:57.659Z,57.59
2023-04-11T11:56:57.628Z,59.42
2023-04-11T11:57:57.661Z,57.49
2023-04-11T11:58:57.846Z,57.29
2023-04-11T11:59:57.635Z,58.20
2023-04-11T12:00:57.563Z,55.96
2023-04-11T12:01:57.573Z,55.76
2023-04-11T12:02:57.814Z,57.18
2023-04-11T12:03:58.292Z,55.58
2023-04-11T12:04:57.656Z,55.51
2023-04-11T12:05:57.437Z,56.73
2023-04-11T12:06:57.456Z,57.47
2023-04-11T12:07:57.454Z,58.26
2023-04-11T12:08:57.421Z,58.05
2023-04-11T12:09:57.407Z,57.24
2023-04-11T12:10:57.435Z,56.60
2023-04-11T12:11:57.420Z,58.23
2023-04-11T12:12:57.415Z,56.68
2023-04-11T12:13:57.527Z,58.10
2023-04-11T12:15:05.994Z,57.87
2023-04-11T12:15:57.425Z,57.36
2023-04-11T12:16:57.379Z,56.12
2023-04-11T12:17:57.342Z,55.51
2023-04-11T12:18:57.309Z,55.20
2023-04-11T12:19:57.275Z,55.71
2023-04-11T12:20:57.334Z,56.90
2023-04-11T12:21:57.274Z,57.21
2023-04-11T12:22:57.327Z,56.47
2023-04-11T12:23:57.518Z,54.33
2023-04-11T12:24:57.285Z,54.94
2023-04-11T12:25:57.206Z,53.72
2023-04-11T12:27:06.480Z,54.05
2023-04-11T12:27:58.183Z,54.46
2023-04-11T12:28:57.509Z,54.77
2023-04-11T12:29:57.130Z,56.19
2023-04-11T12:30:57.194Z,54.87
2023-04-11T12:31:57.246Z,53.47
2023-04-11T12:32:57.216Z,54.39
2023-04-11T12:33:57.333Z,54.28
2023-04-11T12:34:57.106Z,55.10
2023-04-11T12:35:57.049Z,55.00
2023-04-11T12:36:57.086Z,54.49
2023-04-11T12:37:57.068Z,55.07
2023-04-11T12:38:57.212Z,56.60
2023-04-11T12:39:57.051Z,54.87
2023-04-11T12:41:14.305Z,53.75
2023-04-11T12:41:58.054Z,54.26
2023-04-11T12:42:57.662Z,54.26
2023-04-11T12:43:57.269Z,53.55
2023-04-11T12:44:56.974Z,53.55
2023-04-11T12:45:57.005Z,53.85
2023-04-11T12:46:56.993Z,52.66
2023-04-11T12:47:56.966Z,53.37
2023-04-11T12:48:57.220Z,54.26
2023-04-11T12:49:56.880Z,53.45
2023-04-11T12:50:56.895Z,54.16
2023-04-11T12:51:56.873Z,54.57
2023-04-11T12:52:56.874Z,53.72